createdAt,value
2018-10-19T00:02:10.287Z,11.20
2018-10-19T00:04:38.404Z,11.10
2018-10-19T00:07:06.546Z,11.10
2018-10-19T00:09:34.616Z,11.10
2018-10-19T00:12:02.696Z,11.00
2018-10-19T00:14:30.764Z,11.00
2018-10-19T00:16:58.892Z,11.10
2018-10-19T00:19:26.893Z,11.10
2018-10-19T00:21:54.997Z,11.10
2018-10-19T00:24:23.048Z,11.10
2018-10-19T00:26:51.104Z,11.10
2018-10-19T00:29:19.210Z,11.10
2018-10-19T00:31:47.264Z,11.10
2018-10-19T00:34:15.335Z,11.10
2018-10-19T00:36:43.439Z,11.10
2018-10-19T00:39:12.780Z,11.00
2018-10-19T00:41:41.006Z,11.00
2018-10-19T00:44:09.061Z,11.00
2018-10-19T00:46:37.191Z,11.00
2018-10-19T00:49:06.235Z,11.00
2018-10-19T00:51:34.300Z,11.00
2018-10-19T00:54:02.373Z,10.90
2018-10-19T00:56:30.449Z,10.80
2018-10-19T00:58:58.556Z,10.90
2018-10-19T01:01:26.589Z,10.80
2018-10-19T01:03:54.687Z,10.80
2018-10-19T01:06:22.728Z,10.80
2018-10-19T01:08:50.831Z,10.80
2018-10-19T01:11:18.886Z,10.80
2018-10-19T01:13:47.014Z,10.70
2018-10-19T01:16:15.159Z,10.70
2018-10-19T01:18:47.891Z,10.60
2018-10-19T01:21:15.981Z,10.60
2018-10-19T01:23:44.053Z,10.60
2018-10-19T01:26:12.134Z,10.50
2018-10-19T01:28:40.210Z,10.40
2018-10-19T01:31:08.282Z,10.30
2018-10-19T01:33:36.387Z,10.30
2018-10-19T01:36:05.966Z,10.30
2018-10-19T01:38:34.612Z,10.30
2018-10-19T01:41:02.775Z,10.20
2018-10-19T01:43:30.848Z,10.20
2018-10-19T01:45:59.152Z,10.10
2018-10-19T01:48:27.867Z,10.10
2018-10-19T01:50:56.158Z,10.00
2018-10-19T01:53:24.235Z,9.90
2018-10-19T01:55:53.293Z,9.80
2018-10-19T01:58:22.367Z,9.80
2018-10-19T02:00:50.446Z,9.80
2018-10-19T02:03:18.542Z,9.70
2018-10-19T02:05:46.603Z,9.70
2018-10-19T02:08:14.701Z,9.70
2018-10-19T02:10:42.727Z,9.60
2018-10-19T02:13:11.023Z,9.60
2018-10-19T02:15:39.110Z,9.60
2018-10-19T02:18:07.205Z,9.50
2018-10-19T02:20:35.220Z,9.50
2018-10-19T02:23:03.353Z,9.40
2018-10-19T02:25:31.358Z,9.40
2018-10-19T02:27:59.477Z,9.30
2018-10-19T02:30:27.528Z,9.30
2018-10-19T02:32:55.619Z,9.20
2018-10-19T02:35:23.681Z,9.20
2018-10-19T02:37:51.715Z,9.20
2018-10-19T02:40:19.844Z,9.10
2018-10-19T02:42:47.872Z,9.10
2018-10-19T02:45:16.078Z,9.10
2018-10-19T02:47:44.088Z,9.10
2018-10-19T02:50:12.103Z,9.10
2018-10-19T02:52:40.166Z,9.10
2018-10-19T02:55:09.071Z,9.10
2018-10-19T02:57:37.131Z,9.10
2018-10-19T03:00:07.623Z,9.00
2018-10-19T03:02:35.708Z,9.00
2018-10-19T03:05:03.831Z,8.90
2018-10-19T03:07:31.947Z,8.90
2018-10-19T03:10:00.053Z,8.90
2018-10-19T03:12:28.117Z,8.90
2018-10-19T03:14:56.222Z,8.80
2018-10-19T03:17:24.261Z,8.80
2018-10-19T03:19:52.353Z,8.70
2018-10-19T03:22:20.447Z,8.60
2018-10-19T03:24:48.547Z,8.60
2018-10-19T03:27:16.827Z,8.60
2018-10-19T03:29:44.834Z,8.50
2018-10-19T03:32:12.951Z,8.40
2018-10-19T03:34:41.015Z,8.30
2018-10-19T03:37:09.109Z,8.30
2018-10-19T03:39:37.131Z,8.20
2018-10-19T03:42:06.204Z,8.20
2018-10-19T03:44:34.272Z,8.10
2018-10-19T03:47:02.371Z,8.10
2018-10-19T03:50:59.898Z,8.10
2018-10-19T03:54:52.432Z,8.00
2018-10-19T03:57:20.489Z,8.00
2018-10-19T03:59:56.717Z,7.80
2018-10-19T04:02:25.842Z,7.80
2018-10-19T04:04:57.753Z,7.80
2018-10-19T04:07:27.865Z,7.80
2018-10-19T04:09:57.011Z,7.70
2018-10-19T04:12:25.131Z,7.70
2018-10-19T04:14:54.204Z,7.70
2018-10-19T04:17:22.363Z,7.70
2018-10-19T04:19:50.477Z,7.70
2018-10-19T04:22:18.514Z,7.60
2018-10-19T04:24:46.601Z,7.60
2018-10-19T04:27:14.745Z,7.60
2018-10-19T04:29:42.880Z,7.50
2018-10-19T04:32:11.013Z,7.50
2018-10-19T04:34:39.056Z,7.50
2018-10-19T04:37:07.204Z,7.40
2018-10-19T04:39:35.738Z,7.40
2018-10-19T04:42:04.751Z,7.40
2018-10-19T04:44:32.687Z,7.40
2018-10-19T04:47:00.778Z,7.30
2018-10-19T04:49:29.053Z,7.30
2018-10-19T04:55:28.561Z,7.30
2018-10-19T04:57:56.660Z,7.40
2018-10-19T05:00:25.724Z,7.30
2018-10-19T05:02:54.861Z,7.40
2018-10-19T05:05:22.984Z,7.40
2018-10-19T05:07:51.988Z,7.40
2018-10-19T05:10:20.134Z,7.40
2018-10-19T05:12:48.245Z,7.40
2018-10-19T05:15:16.323Z,7.40
2018-10-19T05:17:44.376Z,7.30
2018-10-19T05:20:13.855Z,7.30
2018-10-19T05:22:41.859Z,7.30
2018-10-19T05:25:11.490Z,7.30
2018-10-19T05:27:39.533Z,7.30
2018-10-19T05:30:10.892Z,7.40
2018-10-19T05:32:39.873Z,7.40
2018-10-19T05:35:07.920Z,7.40
2018-10-19T05:39:44.878Z,7.40
2018-10-19T05:42:13.017Z,7.40
2018-10-19T05:44:41.082Z,7.40
2018-10-19T05:47:09.396Z,7.40
2018-10-19T05:49:37.344Z,7.50
2018-10-19T05:52:05.528Z,7.50
2018-10-19T05:54:33.613Z,7.50
2018-10-19T05:57:03.713Z,7.50
2018-10-19T05:59:31.839Z,7.60
2018-10-19T06:01:59.956Z,7.60
2018-10-19T06:04:28.099Z,7.60
2018-10-19T06:06:56.171Z,7.60
2018-10-19T06:09:24.394Z,7.70
2018-10-19T06:11:52.466Z,7.90
2018-10-19T06:14:20.516Z,8.10
2018-10-19T06:16:48.594Z,8.00
2018-10-19T06:19:20.549Z,7.90
2018-10-19T06:21:49.701Z,7.90
2018-10-19T06:24:17.723Z,8.00
2018-10-19T06:26:45.784Z,8.00
2018-10-19T06:29:13.869Z,8.00
2018-10-19T06:31:41.956Z,8.00
2018-10-19T06:34:10.047Z,8.10
2018-10-19T06:36:38.103Z,8.10
2018-10-19T06:39:08.381Z,8.10
2018-10-19T06:41:36.478Z,8.20
2018-10-19T06:44:04.848Z,8.20
2018-10-19T06:46:33.976Z,8.30
2018-10-19T06:49:03.074Z,8.30
2018-10-19T06:51:32.160Z,8.50
2018-10-19T06:54:00.241Z,8.40
2018-10-19T06:56:28.435Z,8.40
2018-10-19T06:58:56.546Z,8.50
2018-10-19T07:01:24.574Z,8.60
2018-10-19T07:03:53.670Z,8.60
2018-10-19T07:06:21.721Z,8.70
2018-10-19T07:08:49.795Z,8.80
2018-10-19T07:11:17.874Z,8.80
2018-10-19T07:13:45.951Z,8.90
2018-10-19T07:16:14.052Z,9.10
2018-10-19T07:18:42.111Z,9.10
2018-10-19T07:21:10.163Z,9.10
2018-10-19T07:23:38.216Z,9.20
2018-10-19T07:26:06.373Z,9.40
2018-10-19T07:28:34.356Z,9.60
2018-10-19T07:31:02.436Z,9.90
2018-10-19T07:33:30.537Z,10.00
2018-10-19T07:35:58.622Z,10.40
2018-10-19T07:38:26.685Z,10.60
2018-10-19T07:40:55.654Z,10.60
2018-10-19T07:43:23.758Z,10.60
2018-10-19T07:45:51.822Z,10.70
2018-10-19T07:48:20.935Z,10.90
2018-10-19T07:50:48.984Z,11.40
2018-10-19T07:53:17.021Z,12.00
2018-10-19T07:55:45.156Z,12.00
2018-10-19T07:58:14.208Z,12.10
2018-10-19T08:00:42.311Z,12.20
2018-10-19T08:03:10.370Z,12.50
2018-10-19T08:05:38.443Z,13.20
2018-10-19T08:08:06.562Z,13.40
2018-10-19T08:10:34.569Z,13.30
2018-10-19T08:13:02.674Z,12.90
2018-10-19T08:15:30.720Z,12.70
2018-10-19T08:17:58.867Z,12.40
2018-10-19T08:20:26.974Z,12.60
2018-10-19T08:22:55.075Z,12.70
2018-10-19T08:25:23.108Z,13.00
2018-10-19T08:27:51.167Z,13.20
2018-10-19T08:30:19.305Z,13.60
2018-10-19T08:32:47.425Z,13.50
2018-10-19T08:35:16.484Z,13.30
2018-10-19T08:37:44.596Z,13.30
2018-10-19T08:40:12.700Z,13.40
2018-10-19T08:42:40.759Z,13.50
2018-10-19T08:45:08.885Z,13.50
2018-10-19T08:47:36.922Z,13.60
2018-10-19T08:50:05.911Z,14.30
2018-10-19T08:52:34.016Z,14.50
2018-10-19T08:55:02.126Z,14.30
2018-10-19T08:57:30.229Z,14.30
2018-10-19T08:59:58.263Z,14.10
2018-10-19T09:02:26.364Z,14.80
2018-10-19T09:04:54.475Z,15.60
2018-10-19T09:07:22.626Z,16.70
2018-10-19T09:09:50.659Z,17.30
2018-10-19T09:12:18.779Z,17.70
2018-10-19T09:14:51.419Z,17.90
2018-10-19T09:17:19.490Z,17.80
2018-10-19T09:19:48.006Z,17.60
2018-10-19T09:22:16.021Z,17.40
2018-10-19T09:24:44.094Z,17.50
2018-10-19T09:27:12.333Z,17.50
2018-10-19T09:29:40.444Z,17.20
2018-10-19T09:32:08.623Z,16.50
2018-10-19T09:34:36.904Z,16.50
2018-10-19T09:37:06.122Z,16.30
2018-10-19T09:39:34.116Z,16.50
2018-10-19T09:42:02.184Z,16.60
2018-10-19T09:44:30.212Z,17.20
2018-10-19T09:46:58.319Z,17.80
2018-10-19T09:49:26.373Z,18.20
2018-10-19T09:51:54.469Z,18.50
2018-10-19T09:54:22.581Z,18.40
2018-10-19T09:56:50.699Z,19.00
2018-10-19T10:00:48.738Z,19.10
2018-10-19T10:03:16.952Z,19.30
2018-10-19T10:05:45.029Z,19.40
2018-10-19T10:08:13.125Z,19.00
2018-10-19T10:10:41.253Z,19.40
2018-10-19T10:13:11.452Z,19.50
2018-10-19T10:15:39.671Z,19.00
2018-10-19T10:18:07.794Z,19.20
2018-10-19T10:20:35.975Z,18.90
2018-10-19T10:23:04.421Z,18.90
2018-10-19T10:25:33.507Z,18.90
2018-10-19T10:28:01.610Z,18.00
2018-10-19T10:30:29.734Z,18.70
2018-10-19T10:32:57.851Z,18.90
2018-10-19T10:35:25.971Z,19.40
2018-10-19T10:37:54.105Z,18.80
2018-10-19T10:40:22.250Z,18.70
2018-10-19T10:42:50.376Z,18.70
2018-10-19T10:45:18.499Z,18.60
2018-10-19T10:47:46.585Z,18.80
2018-10-19T10:50:14.637Z,18.80
2018-10-19T10:52:42.716Z,18.90
2018-10-19T10:55:10.917Z,18.60
2018-10-19T10:57:39.010Z,18.70
2018-10-19T11:00:07.276Z,18.70
2018-10-19T11:02:36.376Z,18.40
2018-10-19T11:05:04.829Z,18.00
2018-10-19T11:07:35.082Z,18.00
2018-10-19T11:10:03.035Z,18.20
2018-10-19T11:12:31.018Z,18.10
2018-10-19T11:14:59.138Z,18.20
2018-10-19T11:17:27.251Z,18.20
2018-10-19T11:19:55.304Z,18.40
2018-10-19T11:22:23.355Z,18.40
2018-10-19T11:24:51.440Z,18.20
2018-10-19T11:27:19.512Z,18.20
2018-10-19T11:29:47.589Z,18.20
2018-10-19T11:32:15.656Z,18.20
2018-10-19T11:34:43.768Z,17.90
2018-10-19T11:37:12.000Z,17.80
2018-10-19T11:39:51.644Z,17.80
2018-10-19T11:42:19.922Z,17.30
2018-10-19T11:44:48.010Z,17.10
2018-10-19T11:47:16.086Z,15.70
2018-10-19T11:49:44.231Z,16.10
2018-10-19T11:52:12.301Z,16.50
2018-10-19T11:54:40.430Z,16.70
2018-10-19T11:57:08.710Z,16.80
2018-10-19T11:59:36.748Z,17.00
2018-10-19T12:02:05.007Z,16.90
2018-10-19T12:04:33.063Z,17.20
2018-10-19T12:07:01.194Z,17.20
2018-10-19T12:09:29.209Z,17.30
2018-10-19T12:11:57.320Z,17.00
2018-10-19T12:14:25.374Z,16.90
2018-10-19T12:16:53.714Z,16.90
2018-10-19T12:19:21.813Z,16.80
2018-10-19T12:21:49.910Z,16.70
2018-10-19T12:24:17.957Z,16.50
2018-10-19T12:26:46.619Z,16.80
2018-10-19T12:29:14.713Z,16.70
2018-10-19T12:31:42.793Z,17.00
2018-10-19T12:34:10.873Z,17.60
2018-10-19T12:36:38.941Z,17.50
2018-10-19T12:39:09.499Z,17.20
2018-10-19T12:41:37.533Z,17.10
2018-10-19T12:44:05.723Z,17.10
2018-10-19T12:46:46.386Z,17.20
2018-10-19T12:49:16.897Z,17.50
2018-10-19T12:51:44.884Z,17.70
2018-10-19T12:54:13.049Z,17.70
2018-10-19T12:56:41.289Z,17.50
2018-10-19T12:59:09.465Z,17.20
2018-10-19T13:01:37.577Z,17.20
2018-10-19T13:04:06.662Z,17.20
2018-10-19T13:06:35.710Z,17.00
2018-10-19T13:09:07.242Z,17.10
2018-10-19T13:11:35.613Z,17.40
2018-10-19T13:14:03.807Z,17.50
2018-10-19T13:16:31.909Z,17.60
2018-10-19T13:19:00.098Z,17.30
2018-10-19T13:21:28.227Z,16.90
2018-10-19T13:23:56.302Z,16.70
2018-10-19T13:26:24.373Z,16.50
2018-10-19T13:28:52.440Z,16.60
2018-10-19T13:31:20.592Z,16.70
2018-10-19T13:33:48.787Z,16.60
2018-10-19T13:36:17.944Z,16.60
2018-10-19T13:38:47.049Z,16.50
2018-10-19T13:41:15.160Z,16.40
2018-10-19T13:43:43.650Z,16.40
2018-10-19T13:46:11.875Z,16.20
2018-10-19T13:48:40.041Z,15.90
2018-10-19T13:51:08.217Z,16.00
2018-10-19T13:53:36.299Z,16.00
2018-10-19T13:56:04.379Z,15.90
2018-10-19T13:58:32.551Z,15.80
2018-10-19T14:01:00.666Z,15.80
2018-10-19T14:03:28.810Z,15.70
2018-10-19T14:05:56.953Z,15.60
2018-10-19T14:08:25.085Z,15.60
2018-10-19T14:10:53.151Z,15.50
2018-10-19T14:13:21.231Z,15.40
2018-10-19T14:15:49.438Z,15.40
2018-10-19T14:18:17.533Z,15.40
2018-10-19T14:20:45.647Z,15.30
2018-10-19T14:23:13.860Z,15.10
2018-10-19T14:25:41.971Z,15.20
2018-10-19T14:28:10.020Z,15.10
2018-10-19T14:30:38.185Z,15.20
2018-10-19T14:33:06.473Z,15.20
2018-10-19T14:35:35.147Z,15.20
2018-10-19T14:38:03.267Z,15.00
2018-10-19T14:40:31.522Z,14.90
2018-10-19T14:42:59.656Z,14.80
2018-10-19T14:45:28.026Z,14.80
2018-10-19T14:47:56.213Z,14.80
2018-10-19T14:50:24.356Z,14.70
2018-10-19T14:52:52.440Z,14.70
2018-10-19T14:55:20.669Z,14.70
2018-10-19T14:57:48.775Z,14.60
2018-10-19T15:00:18.167Z,14.50
2018-10-19T15:02:46.500Z,14.30
2018-10-19T15:05:18.931Z,14.00
2018-10-19T15:07:46.997Z,13.90
2018-10-19T15:10:16.934Z,13.80
2018-10-19T15:13:48.433Z,13.70
2018-10-19T15:16:16.517Z,13.60
2018-10-19T15:18:44.600Z,13.40
2018-10-19T15:21:12.691Z,13.30
2018-10-19T15:23:40.735Z,13.20
2018-10-19T15:26:09.809Z,13.10
2018-10-19T15:28:37.885Z,13.00
2018-10-19T15:31:06.040Z,13.00
2018-10-19T15:33:34.137Z,12.90
2018-10-19T15:36:02.249Z,12.80
2018-10-19T15:38:30.291Z,12.70
2018-10-19T15:40:58.393Z,12.70
2018-10-19T15:43:26.411Z,12.50
2018-10-19T15:45:54.618Z,12.40
2018-10-19T15:48:22.650Z,12.30
2018-10-19T15:50:50.791Z,12.20
2018-10-19T15:53:20.915Z,12.00
2018-10-19T15:55:48.973Z,11.90
2018-10-19T15:58:17.030Z,11.80
2018-10-19T16:00:45.446Z,11.70
2018-10-19T16:03:13.573Z,11.60
2018-10-19T16:05:41.709Z,11.50
2018-10-19T16:08:09.884Z,11.40
2018-10-19T16:10:38.054Z,11.30
2018-10-19T16:13:06.147Z,11.20
2018-10-19T16:15:34.274Z,11.20
2018-10-19T16:18:02.421Z,11.10
2018-10-19T16:20:30.459Z,11.00
2018-10-19T16:22:58.574Z,11.00
2018-10-19T16:25:26.632Z,10.90
2018-10-19T16:27:54.696Z,10.90
2018-10-19T16:30:23.807Z,10.90
2018-10-19T16:32:51.916Z,10.70
2018-10-19T16:35:19.968Z,10.60
2018-10-19T16:37:48.032Z,10.50
2018-10-19T16:40:16.121Z,10.50
2018-10-19T16:42:44.153Z,10.40
2018-10-19T16:45:12.291Z,10.30
2018-10-19T16:47:40.345Z,10.20
2018-10-19T16:50:08.440Z,10.20
2018-10-19T16:52:36.595Z,10.20
2018-10-19T16:55:05.156Z,10.20
2018-10-19T16:57:34.227Z,10.20
2018-10-19T17:00:02.571Z,10.10
2018-10-19T17:02:30.648Z,10.10
2018-10-19T17:04:58.803Z,10.10
2018-10-19T17:07:26.944Z,10.00
2018-10-19T17:09:55.028Z,9.90
2018-10-19T17:12:23.123Z,9.90
2018-10-19T17:14:51.276Z,9.90
2018-10-19T17:17:20.358Z,9.80
2018-10-19T17:19:48.463Z,9.70
2018-10-19T17:22:17.622Z,9.60
2018-10-19T17:24:45.674Z,9.50
2018-10-19T17:27:13.963Z,9.40
2018-10-19T17:29:42.645Z,9.40
2018-10-19T17:32:11.867Z,9.30
2018-10-19T17:34:39.907Z,9.30
2018-10-19T17:37:08.048Z,9.30
2018-10-19T17:39:36.102Z,9.30
2018-10-19T17:42:04.501Z,9.20
2018-10-19T17:44:32.505Z,9.20
2018-10-19T17:49:08.469Z,9.10
2018-10-19T17:51:36.471Z,9.10
2018-10-19T17:54:04.803Z,9.00
2018-10-19T17:56:32.817Z,8.90
2018-10-19T17:59:00.930Z,9.00
2018-10-19T18:01:28.944Z,8.90
2018-10-19T18:03:57.082Z,9.00
2018-10-19T18:06:25.272Z,8.90
2018-10-19T18:08:53.412Z,8.90
2018-10-19T18:11:21.451Z,8.90
2018-10-19T18:13:49.528Z,8.80
2018-10-19T18:16:17.600Z,8.80
2018-10-19T18:18:45.655Z,8.70
2018-10-19T18:21:13.920Z,8.70
2018-10-19T18:23:41.899Z,8.80
2018-10-19T18:26:10.007Z,8.70
2018-10-19T18:28:38.071Z,8.70
2018-10-19T18:31:06.264Z,8.60
2018-10-19T18:33:34.307Z,8.50
2018-10-19T18:36:02.361Z,8.40
2018-10-19T18:38:30.455Z,8.40
2018-10-19T18:40:58.555Z,8.40
2018-10-19T18:43:26.612Z,8.30
2018-10-19T18:45:54.656Z,8.30
2018-10-19T18:48:22.772Z,8.30
2018-10-19T18:50:50.909Z,8.30
2018-10-19T18:53:18.967Z,8.20
2018-10-19T18:55:46.963Z,8.20
2018-10-19T18:58:15.110Z,8.20
2018-10-19T19:00:43.258Z,8.20
2018-10-19T19:03:11.431Z,8.10
2018-10-19T19:05:39.549Z,8.10
2018-10-19T19:08:07.660Z,8.00
2018-10-19T19:10:35.711Z,8.00
2018-10-19T19:13:09.365Z,7.90
2018-10-19T19:15:37.525Z,8.00
2018-10-19T19:18:05.722Z,7.90
2018-10-19T19:20:33.868Z,7.90
2018-10-19T19:23:02.054Z,8.10
2018-10-19T19:25:36.567Z,8.00
2018-10-19T19:28:04.950Z,7.90
2018-10-19T19:30:33.007Z,7.90
2018-10-19T19:33:06.742Z,7.90
2018-10-19T19:35:34.892Z,7.80
2018-10-19T19:38:02.976Z,7.70
2018-10-19T19:40:35.299Z,7.70
2018-10-19T19:43:03.310Z,7.70
2018-10-19T19:45:31.426Z,7.60
2018-10-19T19:48:05.016Z,7.60
2018-10-19T19:50:33.127Z,7.50
2018-10-19T19:53:01.284Z,7.50
2018-10-19T19:55:29.414Z,7.50
2018-10-19T19:57:57.612Z,7.50
2018-10-19T20:00:25.637Z,7.40
2018-10-19T20:02:53.681Z,7.40
2018-10-19T20:05:21.760Z,7.40
2018-10-19T20:07:49.820Z,7.30
2018-10-19T20:10:17.887Z,7.30
2018-10-19T20:12:46.009Z,7.20
2018-10-19T20:15:14.091Z,7.20
2018-10-19T20:17:42.288Z,7.20
2018-10-19T20:20:11.935Z,7.10
2018-10-19T20:22:40.652Z,7.10
2018-10-19T20:25:09.827Z,7.10
2018-10-19T20:27:38.601Z,7.10
2018-10-19T20:30:09.016Z,7.10
2018-10-19T20:32:37.607Z,7.00
2018-10-19T20:35:05.629Z,7.00
2018-10-19T20:37:33.755Z,6.90
2018-10-19T20:40:01.876Z,6.90
2018-10-19T20:42:29.913Z,6.90
2018-10-19T20:44:58.016Z,6.70
2018-10-19T20:47:26.077Z,6.60
2018-10-19T20:49:55.207Z,6.60
2018-10-19T20:52:23.314Z,6.50
2018-10-19T20:54:52.425Z,6.50
2018-10-19T20:57:20.504Z,6.40
2018-10-19T20:59:49.570Z,6.40
2018-10-19T21:02:17.671Z,6.40
2018-10-19T21:04:45.712Z,6.40
2018-10-19T21:07:13.808Z,6.40
2018-10-19T21:09:41.865Z,6.30
2018-10-19T21:12:09.978Z,6.40
2018-10-19T21:14:38.027Z,6.30
2018-10-19T21:17:06.145Z,6.20
2018-10-19T21:19:34.210Z,6.20
2018-10-19T21:22:02.281Z,6.10
2018-10-19T21:24:30.337Z,6.00
2018-10-19T21:26:58.382Z,6.00
2018-10-19T21:29:26.515Z,5.90
2018-10-19T21:31:54.738Z,5.90
2018-10-19T21:34:22.813Z,5.90
2018-10-19T21:36:50.938Z,5.90
2018-10-19T21:39:19.058Z,5.80
2018-10-19T21:41:47.115Z,5.80
2018-10-19T21:44:15.339Z,5.80
2018-10-19T21:46:43.395Z,5.80
2018-10-19T21:49:11.420Z,5.70
2018-10-19T21:51:39.550Z,5.60
2018-10-19T21:54:07.687Z,5.50
2018-10-19T21:58:21.689Z,5.40
2018-10-19T22:00:49.712Z,5.30
2018-10-19T22:03:17.795Z,5.30
2018-10-19T22:05:45.857Z,5.20
2018-10-19T22:08:13.924Z,5.20
2018-10-19T22:10:42.025Z,5.20
2018-10-19T22:13:10.187Z,5.20
2018-10-19T22:15:38.170Z,5.10
2018-10-19T22:18:06.263Z,5.10
2018-10-19T22:20:34.328Z,5.10
2018-10-19T22:23:02.388Z,5.00
2018-10-19T22:25:30.425Z,4.90
2018-10-19T22:27:58.525Z,4.90
2018-10-19T22:30:26.602Z,4.90
2018-10-19T22:32:54.667Z,4.90
2018-10-19T22:35:22.701Z,4.90
2018-10-19T22:37:50.797Z,4.90
2018-10-19T22:40:18.919Z,4.90
2018-10-19T22:42:47.053Z,4.90
2018-10-19T22:45:15.115Z,4.90
2018-10-19T22:47:43.190Z,4.90
2018-10-19T22:50:11.333Z,4.90
2018-10-19T22:52:39.430Z,4.90
2018-10-19T22:55:07.555Z,4.80
2018-10-19T22:57:35.629Z,4.80
2018-10-19T23:00:03.755Z,4.80
2018-10-19T23:02:31.815Z,4.70
2018-10-19T23:04:59.931Z,4.80
2018-10-19T23:07:27.979Z,4.70
2018-10-19T23:09:56.095Z,4.80
2018-10-19T23:12:24.250Z,4.90
2018-10-19T23:14:52.288Z,4.90
2018-10-19T23:18:49.675Z,4.90
2018-10-19T23:21:17.745Z,4.90
2018-10-19T23:23:45.797Z,5.00
2018-10-19T23:26:13.960Z,4.90
2018-10-19T23:28:42.085Z,5.00
2018-10-19T23:31:10.213Z,5.00
2018-10-19T23:33:38.175Z,4.90
2018-10-19T23:36:06.289Z,5.00
2018-10-19T23:38:34.328Z,5.00
2018-10-19T23:41:02.429Z,5.10
2018-10-19T23:43:30.508Z,5.20
2018-10-19T23:45:59.574Z,5.20
2018-10-19T23:48:27.650Z,5.20
2018-10-19T23:50:55.722Z,5.20
2018-10-19T23:53:23.792Z,5.20
2018-10-19T23:55:51.877Z,5.10
2018-10-19T23:58:19.961Z,5.10
